METAR v bližini

 

LIPQ - Ronchi Legionari, Italy
Oddaljenost od postaje: JZ 35km
Podatki zajeti: 09/05/2021 06:50
Jasno
Jasno
 Veter iz smeri spremenljiv
Veter: spremenljiv 2 km/h
Temperatura: 9°C
Temp. rosišča: 7°C
Vlažnost: 87%
Tlak: 1020 hPa
Oblačnost: Jasno
Vidljivost: 10 km
2021/05/09 04:50 LIPQ 090450Z AUTO VRB01KT 9999 NCD 09/07 Q1020
LIVT - Trieste, Italy
Oddaljenost od postaje: J 49km
Podatki zajeti: 08/05/2021 19:55
Ni posodobljen
Jasno
Jasno
 Veter iz smeri calm
Veter: Tišina
Temperatura: 18°C
Temp. rosišča: 8°C
Vlažnost: 52%
Tlak: 1019 hPa
Stanje: Jasno
Vidljivost: večja od 10 km
2021/05/08 17:55 LIVT 081755Z 00000KT CAVOK 18/08 Q1019 RMK SKC QUK 0 QUL 0 VIS MAR 20 KM VIS MIN 9999
 
LIVO - Tarvisio, Italy
Oddaljenost od postaje: SSZ 49km
Podatki zajeti: 08/05/2021 19:55
Ni posodobljen
Jasno
Jasno
 Veter iz smeri JJV
Veter: JJV 7 km/h
Temperatura: 12°C
Temp. rosišča: 1°C
Vlažnost: 47%
Tlak: 1018 hPa
Stanje: Jasno
Vidljivost: večja od 10 km
2021/05/08 17:55 LIVO 081755Z 16004KT CAVOK 12/01 Q1018 RMK BKN BKN080 SCT160 VIS MIN 9999
LIPI - Rivolto (it-Afb), Italy
Oddaljenost od postaje: ZJZ 57km
Podatki zajeti: 07/05/2021 11:55
Ni posodobljen
Pretežno oblačno
Pretežno oblačno
 Veter iz smeri VJV
Veter: VJV 7 km/h
Temperatura: 18°C
Temp. rosišča: 12°C
Vlažnost: 68%
Tlak: 1007 hPa
Oblačnost: Pretežno oblačno
Vidljivost: 10 km
Podrobnosti o oblakih: Rahlo oblačno 610 m
Delno oblačno 1219 m
Pretežno oblačno 1829 m
2021/05/07 09:55 LIPI 070955Z 12004KT 9999 FEW020 SCT040 BKN060 18/12 Q1007 RMK BKN VIS MIN 9999 WIND THR06 15004KT WIND THR24 16004KT BLU
 
LJLJ - Ljubljana/Brnik, Slovenia
Oddaljenost od postaje: VSV 59km
Podatki zajeti: 09/05/2021 07:00
Jasno
Jasno
 Veter iz smeri calm
Veter: Tišina
Temperatura: 5°C
Temp. rosišča: 4°C
Vlažnost: 93%
Tlak: 1021 hPa
Stanje: Jasno
Vidljivost: večja od 10 km
2021/05/09 05:00 LJLJ 090500Z 00000KT CAVOK 05/04 Q1021 NOSIG
LJPZ - Portoroz, Slovenia
Oddaljenost od postaje: J 68km
Podatki zajeti: 09/05/2021 07:00
Jasno
Jasno
 Veter iz smeri VJV
Veter: VJV 13 km/h
Temperatura: 9°C
Občutek mraza zaradi vetra: 7°C
Temp. rosišča: 5°C
Vlažnost: 76%
Tlak: 1020 hPa
Stanje: Jasno
Vidljivost: večja od 10 km
2021/05/09 05:00 LJPZ 090500Z 12007KT CAVOK 09/05 Q1020
 
LOWK - Klagenfurt(Civ/M, Austria
Oddaljenost od postaje: SV 78km
Podatki zajeti: 09/05/2021 06:50
Jasno
Jasno
 Veter iz smeri SZ
Veter: SZ 7 km/h
Temperatura: 6°C
Občutek mraza zaradi vetra: 4°C
Temp. rosišča: 4°C
Vlažnost: 87%
Tlak: 1021 hPa
Oblačnost: Jasno
Vidljivost: 10 km
2021/05/09 04:50 LOWK 090450Z AUTO 31004KT 9999 NCD 06/04 Q1021
LIPA - Aviano (it/Us-Af, Italy
Oddaljenost od postaje: Z 89km
Podatki zajeti: 07/05/2021 19:55
Ni posodobljen
Rahlo oblačno
Rahlo oblačno
 Veter iz smeri ZSZ
Veter: ZSZ 7 km/h
Temperatura: 17°C
Temp. rosišča: 14°C
Vlažnost: 83%
Tlak: 1009 hPa
Oblačnost: Rahlo oblačno
Vidljivost: 10 km
Podrobnosti o oblakih: Rahlo oblačno 1524 m
2021/05/07 17:55 LIPA 071755Z 29004KT 9999 FEW050 17/14 Q1009 RMK FEW VIS MIN 9999 WIND THR05 /////KT WIND THR23 /////KT A2981 BLU
 
LDRI - Rijeka/Omisalj, Croatia
Oddaljenost od postaje: JV 115km
Podatki zajeti: 09/05/2021 07:00
Jasno
Jasno
 Veter iz smeri spremenljiv
Veter: spremenljiv 2 km/h
Temperatura: 12°C
Temp. rosišča: 8°C
Vlažnost: 77%
Tlak: 1020 hPa
Stanje: Jasno
Vidljivost: večja od 10 km
2021/05/09 05:00 LDRI 090500Z VRB01KT CAVOK 12/08 Q1020
LIPZ - Venezia/Tessera, Italy
Oddaljenost od postaje: ZJZ 127km
Podatki zajeti: 09/05/2021 06:50
Jasno
Jasno
 Veter iz smeri S
Veter: S 6 km/h
Temperatura: 11°C
Temp. rosišča: 6°C
Vlažnost: 72%
Tlak: 1020 hPa
Stanje: Jasno
Vidljivost: večja od 10 km
2021/05/09 04:50 LIPZ 090450Z 35003KT CAVOK 11/06 Q1020 NOSIG
 
LDPL - Pula, Croatia
Oddaljenost od postaje: J 133km
Podatki zajeti: 09/05/2021 07:00
Jasno
Jasno
 Veter iz smeri V
Veter: V 4 km/h
Temperatura: 12°C
Temp. rosišča: 4°C
Vlažnost: 58%
Tlak: 1020 hPa
Stanje: Jasno
Vidljivost: večja od 10 km
2021/05/09 05:00 LDPL 090500Z 08002KT CAVOK 12/04 Q1020 NOSIG
LIPS - Istrana (it-Afb), Italy
Oddaljenost od postaje: ZJZ 136km
Podatki zajeti: 09/05/2021 06:55
Jasno
Jasno
 Veter iz smeri VSV
Veter: VSV 4 km/h
Temperatura: 11°C
Temp. rosišča: 10°C
Vlažnost: 94%
Tlak: 1019 hPa
Stanje: Jasno
Vidljivost: večja od 10 km
2021/05/09 04:55 LIPS 090455Z 06002KT CAVOK 11/10 Q1019 RMK SKC VIS MIN 9999 WIND THR26 0000KT WIND THR08 06002KT BLU
 
LIVD - Dobbiaco, Italy
Oddaljenost od postaje: ZSZ 137km
Podatki zajeti: 07/05/2021 19:55
Ni posodobljen
Delno oblačno
Delno oblačno
 Veter iz smeri spremenljiv
Veter: spremenljiv 0 km/h
Temperatura: 11°C
Temp. rosišča: -9°C
Vlažnost: 24%
Tlak: 1014 hPa
Oblačnost: Delno oblačno
Vidljivost: 10 km
Podrobnosti o oblakih: Delno oblačno 1219 m
2021/05/07 17:55 LIVD 071755Z /////KT 9999 SCT040 11/M09 Q1014 RMK SCT VIS MIN 9999
LJCE - Cerklje, Slovenia
Oddaljenost od postaje: V 139km
Podatki zajeti: 09/05/2021 07:00
Jasno
Jasno
 Veter iz smeri spremenljiv
Veter: spremenljiv 2 km/h
Temperatura: 6°C
Temp. rosišča: 6°C
Vlažnost: 100%
Tlak: 1021 hPa
Stanje: Jasno
Vidljivost: večja od 10 km
2021/05/09 05:00 LJCE 090500Z VRB01KT CAVOK 06/06 Q1021 RMK BLU
 
LOXZ - Zeltweg (mil), Austria
Oddaljenost od postaje: SSV 147km
Podatki zajeti: 09/05/2021 06:50
Rahlo oblačno
Rahlo oblačno
 Veter iz smeri spremenljiv
Veter: spremenljiv 2 km/h
Temperatura: 5°C
Temp. rosišča: 3°C
Vlažnost: 87%
Tlak: 1020 hPa
Oblačnost: Rahlo oblačno
Podrobnosti o oblakih: Rahlo oblačno 3658 m
2021/05/09 04:50 LOXZ 090450Z VRB01KT 50KM FEW120AC 05/03 Q1020
sucontract_SNC